Time;durP1;ratioP1;P1;durP2;ratioP2;P2;SDS_P1;SDS_P2;PMS_P1;PMS_P2;Temp;Humidity;BMP_temperature;BMP_pressure;BME280_temperature;BME280_humidity;BME280_pressure;Samples;Min_cycle;Max_cycle;Signal;HPM_P1;HPM_P2
2021/06/17 00:01:21;;;;;;;;;;;19.80;84.80;;;18.67;58.18;95533.78;10445971;28;2088;-81
2021/06/17 00:06:24;;;;;;;;;;;19.80;84.70;;;18.62;58.39;95521.91;10441807;28;2140;-81
2021/06/17 00:11:26;;;;;;;;;;;19.70;84.90;;;18.49;58.96;95527.63;10429564;28;1995;-80
2021/06/17 00:16:29;;;;;;;;;;;19.60;85.20;;;18.41;59.81;95525.75;10429273;28;1289;-82
2021/06/17 00:21:32;;;;;;;;;;;19.50;85.90;;;18.32;59.88;95528.50;10407521;28;2018;-80
2021/06/17 00:26:35;;;;;;;;;;;19.40;85.90;;;18.35;58.92;95528.66;10405363;28;2238;-80
2021/06/17 00:31:39;;;;;;;;;;;19.40;85.70;;;18.23;59.98;95522.31;10433407;28;2063;-80
2021/06/17 00:36:42;;;;;;;;;;;19.40;86.30;;;18.27;60.06;95526.00;10400139;28;2476;-81
2021/06/17 00:41:45;;;;;;;;;;;19.30;86.60;;;18.13;60.48;95519.97;10424714;28;2149;-81
2021/06/17 00:46:47;;;;;;;;;;;19.30;86.90;;;18.06;60.41;95517.75;10395491;28;2082;-81
2021/06/17 00:51:50;;;;;;;;;;;19.20;87.20;;;18.16;60.53;95511.97;10431778;28;2035;-80
2021/06/17 00:56:53;;;;;;;;;;;19.10;87.20;;;18.14;59.79;95508.78;10391600;28;2124;-79
2021/06/17 01:01:56;;;;;;;;;;;19.20;87.00;;;18.06;60.21;95520.47;10405422;28;2277;-82
2021/06/17 01:06:59;;;;;;;;;;;19.10;87.20;;;18.01;60.71;95518.75;10401764;28;2124;-82
2021/06/17 01:12:02;;;;;;;;;;;19.10;87.80;;;18.12;60.29;95507.50;10406331;28;2521;-82
2021/06/17 01:17:05;;;;;;;;;;;19.10;87.60;;;17.98;60.51;95508.53;10404234;28;2070;-82
2021/06/17 01:22:07;;;;;;;;;;;19.00;87.40;;;17.85;60.75;95503.31;10420064;28;1914;-81
2021/06/17 01:27:10;;;;;;;;;;;19.00;87.80;;;17.77;61.19;95503.03;10433197;28;2623;-82
2021/06/17 01:32:14;;;;;;;;;;;18.80;88.00;;;17.72;61.25;95502.41;10422802;28;1850;-80
2021/06/17 01:37:17;;;;;;;;;;;18.80;88.10;;;17.76;61.58;95500.63;10425172;28;2218;-79
2021/06/17 01:42:20;;;;;;;;;;;18.80;88.40;;;17.61;61.96;95493.75;10427277;28;2059;-81
2021/06/17 01:47:22;;;;;;;;;;;18.70;88.90;;;17.62;63.01;95489.13;10422971;28;2033;-82
2021/06/17 01:52:25;;;;;;;;;;;18.70;89.80;;;17.59;62.74;95493.28;10433085;28;2215;-81
2021/06/17 01:57:28;;;;;;;;;;;18.70;90.30;;;17.45;64.39;95484.56;10442910;28;2102;-79
2021/06/17 02:02:31;;;;;;;;;;;18.60;91.00;;;17.43;64.78;95486.78;10430317;28;2091;-79
2021/06/17 02:07:34;;;;;;;;;;;18.50;91.80;;;17.32;65.14;95477.41;10421022;28;2115;-80
2021/06/17 02:12:36;;;;;;;;;;;18.40;92.30;;;17.42;65.09;95469.69;10423569;28;2092;-81
2021/06/17 02:17:39;;;;;;;;;;;18.40;92.90;;;17.35;65.72;95474.03;10421308;28;2226;-80
2021/06/17 02:22:42;;;;;;;;;;;18.40;92.80;;;17.31;66.13;95464.94;10440599;28;1783;-81
2021/06/17 02:27:45;;;;;;;;;;;18.40;93.30;;;17.48;65.56;95473.03;10428260;28;1951;-82
2021/06/17 02:32:48;;;;;;;;;;;18.30;93.50;;;17.29;66.58;95454.38;10429219;28;2060;-81
2021/06/17 02:37:50;;;;;;;;;;;18.30;94.00;;;17.25;67.10;95470.53;10415473;28;1252;-78
2021/06/17 02:42:53;;;;;;;;;;;18.30;94.40;;;17.19;67.05;95465.59;10413872;28;1351;-81
2021/06/17 02:47:56;;;;;;;;;;;18.20;94.70;;;17.21;67.25;95457.91;10405097;28;2133;-80
2021/06/17 02:52:59;;;;;;;;;;;18.30;95.00;;;17.24;66.67;95458.09;10438492;28;2070;-79
2021/06/17 02:58:02;;;;;;;;;;;18.30;94.90;;;17.51;65.60;95462.31;10421214;28;2104;-81
2021/06/17 03:03:04;;;;;;;;;;;18.30;94.70;;;17.27;67.35;95452.00;10405702;28;2078;-80
2021/06/17 03:08:07;;;;;;;;;;;18.40;95.00;;;17.35;66.81;95436.78;10416587;28;2041;-82
2021/06/17 03:13:10;;;;;;;;;;;18.30;95.10;;;17.38;67.22;95444.28;10428545;28;2064;-78
2021/06/17 03:18:13;;;;;;;;;;;18.40;95.40;;;17.90;64.82;95438.66;10427568;28;2037;-79
2021/06/17 03:23:16;;;;;;;;;;;18.40;95.00;;;17.63;65.92;95437.19;10408506;28;2231;-81
2021/06/17 03:28:18;;;;;;;;;;;18.60;94.90;;;17.62;66.05;95429.31;10424472;28;2119;-79
2021/06/17 03:33:21;;;;;;;;;;;18.50;94.80;;;17.63;66.26;95436.38;10421209;28;2220;-82
2021/06/17 03:38:24;;;;;;;;;;;18.60;94.90;;;17.62;66.80;95460.00;10401587;28;2080;-80
2021/06/17 03:43:27;;;;;;;;;;;18.50;95.40;;;17.94;64.94;95452.38;10416425;28;2096;-81
2021/06/17 03:48:30;;;;;;;;;;;18.60;95.20;;;18.43;63.65;95447.28;10428759;28;2056;-81
2021/06/17 03:53:33;;;;;;;;;;;19.00;94.20;;;18.60;62.83;95458.06;10418324;28;2189;-80
2021/06/17 03:58:36;;;;;;;;;;;19.20;93.60;;;19.05;61.29;95462.84;10416565;28;2083;-82
2021/06/17 04:03:39;;;;;;;;;;;19.60;92.50;;;19.17;61.31;95473.78;10390695;28;2139;-79
2021/06/17 04:08:41;;;;;;;;;;;19.80;92.00;;;19.11;61.55;95475.91;10419801;28;2109;-79
2021/06/17 04:13:44;;;;;;;;;;;20.70;92.10;;;19.45;60.02;95474.75;10423765;28;2091;-78
2021/06/17 04:19:07;;;;;;;;;;;19.90;91.40;;;19.99;57.81;95479.31;10419785;28;2052;-79
2021/06/17 04:24:29;;;;;;;;;;;20.20;90.20;;;20.18;57.39;95482.25;10421228;28;2115;-79
2021/06/17 04:29:33;;;;;;;;;;;20.60;89.40;;;20.29;57.88;95479.84;10422386;28;2167;-80
2021/06/17 04:34:36;;;;;;;;;;;20.90;89.20;;;20.34;57.99;95485.06;10431763;28;2138;-80
2021/06/17 04:39:39;;;;;;;;;;;21.00;89.20;;;20.61;56.34;95482.78;10428084;28;2193;-81
2021/06/17 04:44:41;;;;;;;;;;;21.20;88.20;;;20.84;55.76;95485.81;10423288;28;1552;-81
2021/06/17 04:49:44;;;;;;;;;;;21.30;87.50;;;21.07;55.61;95499.75;10418955;28;2110;-78
2021/06/17 04:54:47;;;;;;;;;;;21.50;87.50;;;20.92;56.08;95499.31;10451025;28;2134;-80
2021/06/17 04:59:49;;;;;;;;;;;21.70;87.00;;;21.63;53.51;95507.94;10447523;28;1274;-79
2021/06/17 05:04:52;;;;;;;;;;;21.90;86.10;;;21.81;53.25;95510.00;10427292;28;2073;-81
2021/06/17 05:15:21;;;;;;;;;;;22.40;85.00;;;21.72;54.14;95516.78;10436866;28;2118;-80
2021/06/17 05:20:26;;;;;;;;;;;22.50;84.90;;;22.09;53.13;95509.16;10440948;28;1982;-82
2021/06/17 05:25:29;;;;;;;;;;;22.60;84.90;;;21.72;53.46;95516.78;10431485;28;2182;-80
2021/06/17 05:30:32;;;;;;;;;;;22.60;83.80;;;22.33;52.85;95519.09;10435463;28;2269;-78
2021/06/17 05:35:35;;;;;;;;;;;22.90;84.50;;;22.77;50.57;95514.25;10427563;28;2632;-78
2021/06/17 05:40:38;;;;;;;;;;;23.10;82.90;;;22.88;49.66;95520.00;10440635;28;1328;-80
2021/06/17 05:45:41;;;;;;;;;;;23.20;82.00;;;23.36;48.00;95518.66;10415157;28;2060;-81
2021/06/17 05:50:43;;;;;;;;;;;23.60;80.90;;;23.46;47.29;95517.28;10408312;28;2088;-77
2021/06/17 05:55:46;;;;;;;;;;;23.90;79.50;;;23.82;46.09;95517.97;10434163;28;2056;-80
2021/06/17 06:00:49;;;;;;;;;;;24.20;78.50;;;23.95;46.15;95516.66;10423939;28;2100;-79
2021/06/17 06:05:51;;;;;;;;;;;24.30;78.40;;;24.06;45.77;95514.88;10429032;28;2195;-80
2021/06/17 06:10:54;;;;;;;;;;;24.50;77.60;;;23.96;45.37;95519.03;10403823;28;2052;-80
2021/06/17 06:15:57;;;;;;;;;;;24.60;77.00;;;23.99;45.99;95517.50;10432808;28;2091;-79
2021/06/17 06:21:00;;;;;;;;;;;24.70;77.00;;;24.35;45.29;95516.16;10433495;28;2123;-81
2021/06/17 06:26:03;;;;;;;;;;;24.90;76.70;;;24.30;45.00;95524.69;10427295;28;2168;-79
2021/06/17 06:31:05;;;;;;;;;;;25.00;75.80;;;24.37;44.63;95521.31;10433680;28;2161;-80
2021/06/17 06:36:08;;;;;;;;;;;25.10;75.10;;;24.23;45.48;95516.31;10433075;28;2059;-77
2021/06/17 06:41:11;;;;;;;;;;;25.10;75.30;;;25.24;44.41;95530.41;10432368;28;2068;-79
2021/06/17 06:46:13;;;;;;;;;;;25.50;75.70;;;24.93;44.26;95537.84;10413584;28;2044;-81
2021/06/17 06:51:16;;;;;;;;;;;25.70;74.60;;;25.30;43.61;95535.22;10442436;28;2113;-80
2021/06/17 06:56:19;;;;;;;;;;;25.80;74.90;;;25.14;44.04;95545.63;10412787;28;1687;-80
2021/06/17 07:01:22;;;;;;;;;;;25.80;74.70;;;25.47;43.24;95541.31;10422458;28;2036;-81
2021/06/17 07:06:25;;;;;;;;;;;26.00;74.40;;;26.01;42.19;95542.72;10406427;28;2275;-80
2021/06/17 07:11:27;;;;;;;;;;;26.20;73.80;;;25.65;42.14;95544.28;10421776;28;2225;-80
2021/06/17 07:16:30;;;;;;;;;;;26.20;73.20;;;25.71;42.26;95534.53;10428395;28;2095;-80
2021/06/17 07:21:33;;;;;;;;;;;26.40;72.70;;;26.08;41.46;95545.53;10399978;28;1767;-79
2021/06/17 07:26:36;;;;;;;;;;;26.60;72.30;;;26.30;40.79;95552.03;10402724;28;1918;-80
2021/06/17 07:31:40;;;;;;;;;;;26.80;71.40;;;26.59;39.72;95547.56;10423125;28;2036;-81
2021/06/17 07:36:43;;;;;;;;;;;26.80;70.90;;;26.83;40.19;95546.97;10408941;28;1721;-81
2021/06/17 07:41:45;;;;;;;;;;;27.20;71.50;;;27.05;39.45;95545.19;10403203;28;1877;-81
2021/06/17 07:46:48;;;;;;;;;;;27.50;70.40;;;27.33;40.00;95547.28;10419398;28;2039;-80
2021/06/17 07:51:51;;;;;;;;;;;27.70;70.50;;;27.32;39.09;95548.47;10408274;28;1551;-79
2021/06/17 07:56:54;;;;;;;;;;;27.80;69.50;;;27.51;37.68;95555.66;10420163;28;2086;-82
2021/06/17 08:01:56;;;;;;;;;;;27.90;68.30;;;27.54;39.10;95554.06;10405195;28;1978;-81
2021/06/17 08:06:59;;;;;;;;;;;28.00;69.50;;;27.13;38.99;95548.75;10395903;28;1957;-81
2021/06/17 08:12:02;;;;;;;;;;;28.00;68.70;;;27.18;38.97;95546.44;10412278;28;2126;-81
2021/06/17 08:17:05;;;;;;;;;;;27.90;68.50;;;27.54;38.12;95548.53;10397927;28;2227;-80
2021/06/17 08:22:07;;;;;;;;;;;28.10;68.30;;;27.11;39.07;95553.88;10418777;28;1580;-79
2021/06/17 08:27:10;;;;;;;;;;;28.00;68.80;;;27.78;37.56;95550.63;10420290;28;2022;-79
2021/06/17 08:32:13;;;;;;;;;;;28.20;68.10;;;27.77;37.93;95540.00;10424834;28;1678;-81
2021/06/17 08:37:15;;;;;;;;;;;28.30;68.00;;;27.94;36.57;95548.31;10423355;28;2009;-80
2021/06/17 08:42:18;;;;;;;;;;;28.60;66.80;;;27.53;38.17;95560.78;10415858;28;1877;-80
2021/06/17 08:47:21;;;;;;;;;;;28.50;67.10;;;27.59;37.22;95553.69;10424013;28;1960;-81
2021/06/17 08:52:24;;;;;;;;;;;28.50;66.20;;;28.01;35.89;95542.81;10447431;28;1842;-79
2021/06/17 08:57:27;;;;;;;;;;;28.50;65.60;;;28.26;35.67;95544.81;10421009;28;2005;-81
2021/06/17 09:02:30;;;;;;;;;;;28.90;64.80;;;28.24;35.93;95545.19;10426061;28;2004;-80
2021/06/17 09:07:32;;;;;;;;;;;28.90;65.20;;;28.31;36.56;95544.44;10420360;28;1984;-80
2021/06/17 09:12:35;;;;;;;;;;;28.80;66.00;;;27.90;37.40;95542.00;10412507;28;1905;-80
2021/06/17 09:17:38;;;;;;;;;;;28.90;66.00;;;27.62;38.97;95537.16;10416915;28;1826;-82
2021/06/17 09:22:42;;;;;;;;;;;28.70;67.20;;;28.08;37.60;95536.50;10407657;28;1890;-80
2021/06/17 09:27:45;;;;;;;;;;;28.80;66.60;;;28.78;36.94;95542.47;10424697;28;2153;-82
2021/06/17 09:32:48;;;;;;;;;;;29.10;66.70;;;27.90;38.10;95552.25;10402802;28;1934;-81
2021/06/17 09:37:51;;;;;;;;;;;29.00;66.70;;;28.20;37.24;95543.63;10389115;28;2066;-81
2021/06/17 09:42:54;;;;;;;;;;;29.00;66.60;;;28.25;35.72;95555.09;10394396;28;1962;-80
2021/06/17 09:47:56;;;;;;;;;;;29.10;64.50;;;29.01;33.98;95558.66;10392145;28;2015;-80
2021/06/17 09:52:59;;;;;;;;;;;29.50;63.60;;;28.89;33.92;95550.78;10414982;28;1992;-80
2021/06/17 09:58:02;;;;;;;;;;;29.60;62.30;;;29.33;31.05;95566.91;10412902;28;1827;-82
2021/06/17 10:03:04;;;;;;;;;;;29.70;60.30;;;29.60;29.96;95554.19;10423406;28;2103;-82
2021/06/17 10:08:07;;;;;;;;;;;30.00;59.50;;;29.54;31.83;95563.31;10434422;28;1914;-82
2021/06/17 10:13:11;;;;;;;;;;;30.30;59.70;;;29.68;28.24;95556.91;10427290;28;2102;-81
2021/06/17 10:18:13;;;;;;;;;;;30.40;56.70;;;29.50;31.33;95560.50;10411847;28;2066;-82
2021/06/17 10:23:16;;;;;;;;;;;30.40;59.30;;;29.64;29.90;95550.59;10419018;28;2036;-82
2021/06/17 10:28:21;;;;;;;;;;;30.30;58.00;;;29.87;29.75;95554.44;10417925;28;2000;-82
2021/06/17 10:33:24;;;;;;;;;;;30.40;58.10;;;30.11;29.49;95563.06;10428801;28;2126;-82
2021/06/17 10:38:29;;;;;;;;;;;30.60;57.80;;;30.23;27.80;95553.47;10402434;28;2148;-80
2021/06/17 10:43:32;;;;;;;;;;;31.30;55.10;;;31.16;28.01;95554.28;10402867;28;1827;-81
2021/06/17 10:48:35;;;;;;;;;;;32.50;55.30;;;31.13;27.58;95549.56;10403081;28;2038;-81
2021/06/17 10:53:39;;;;;;;;;;;33.40;54.10;;;31.54;26.37;95539.59;10420116;28;1870;-84
2021/06/17 10:58:42;;;;;;;;;;;33.50;52.60;;;31.42;26.58;95543.72;10404705;28;2110;-82
2021/06/17 11:03:44;;;;;;;;;;;33.70;52.40;;;31.16;26.33;95539.59;10424693;28;2149;-84
2021/06/17 11:08:47;;;;;;;;;;;34.20;50.40;;;30.50;26.14;95534.25;10414598;28;2021;-82
2021/06/17 11:13:50;;;;;;;;;;;33.30;50.00;;;30.85;25.40;95522.06;10443767;28;2043;-82
2021/06/17 11:18:56;;;;;;;;;;;33.10;50.40;;;31.23;24.73;95517.31;10430358;28;2104;-83
2021/06/17 11:24:00;;;;;;;;;;;33.70;48.80;;;31.87;23.83;95502.66;10426248;28;1996;-80
2021/06/17 11:29:03;;;;;;;;;;;34.20;47.70;;;31.57;23.50;95505.44;10411478;28;2032;-83
2021/06/17 11:34:05;;;;;;;;;;;34.20;47.60;;;31.04;21.89;95510.38;10409517;28;2199;-81
2021/06/17 11:39:08;;;;;;;;;;;33.00;45.90;;;30.66;23.78;95495.66;10419298;28;2016;-80
2021/06/17 11:44:32;;;;;;;;;;;32.30;47.60;;;30.67;22.44;95495.31;10429699;28;2139;-81
2021/06/17 11:49:35;;;;;;;;;;;31.90;46.60;;;30.66;22.24;95501.22;10405584;28;2202;-81
2021/06/17 11:54:37;;;;;;;;;;;31.70;46.70;;;30.52;23.43;95498.56;10428285;28;2174;-82
2021/06/17 11:59:48;;;;;;;;;;;31.80;47.70;;;30.80;23.01;95498.34;10413238;28;2130;-83
2021/06/17 12:04:55;;;;;;;;;;;31.60;47.70;;;30.30;22.16;95497.97;10412300;28;2133;-81
2021/06/17 12:10:00;;;;;;;;;;;31.70;45.60;;;29.76;22.51;95503.03;10430127;28;2103;-78
2021/06/17 12:15:03;;;;;;;;;;;31.20;46.00;;;29.74;24.01;95488.81;10429678;28;2060;-78
2021/06/17 12:20:06;;;;;;;;;;;31.10;47.40;;;30.22;22.34;95485.34;10416844;28;2065;-82
2021/06/17 12:25:09;;;;;;;;;;;31.00;46.90;;;30.70;21.50;95479.03;10420630;28;2013;-81
2021/06/17 12:30:11;;;;;;;;;;;31.40;46.40;;;30.57;22.14;95468.41;10430647;28;2090;-83
2021/06/17 12:35:15;;;;;;;;;;;31.50;46.10;;;30.53;21.33;95472.41;10418443;28;2456;-82
2021/06/17 12:40:18;;;;;;;;;;;31.60;45.10;;;30.80;21.32;95469.81;10407381;28;2127;-79
2021/06/17 12:45:21;;;;;;;;;;;31.90;45.00;;;30.55;22.28;95476.38;10413163;28;2080;-81
2021/06/17 12:55:46;;;;;;;;;;;31.50;49.90;;;29.94;26.56;95470.47;10407525;28;2031;-83
2021/06/17 13:00:49;;;;;;;;;;;31.20;50.70;;;30.46;26.62;95473.25;10417092;28;1965;-81
2021/06/17 13:05:54;;;;;;;;;;;31.20;51.20;;;30.30;26.98;95473.03;10400057;28;1893;-82
2021/06/17 13:10:57;;;;;;;;;;;31.50;50.70;;;30.88;26.04;95460.22;10425399;28;2012;-82
2021/06/17 13:16:01;;;;;;;;;;;31.90;50.50;;;31.42;23.22;95457.59;10438402;28;1886;-82
2021/06/17 13:21:04;;;;;;;;;;;32.10;48.10;;;31.54;21.37;95465.38;10434659;28;2110;-82
2021/06/17 13:26:07;;;;;;;;;;;32.30;45.80;;;30.81;23.26;95463.06;10434229;28;1843;-81
2021/06/17 13:31:10;;;;;;;;;;;32.10;47.40;;;31.25;23.44;95466.97;10426553;28;2042;-83
2021/06/17 13:36:14;;;;;;;;;;;32.00;48.30;;;31.34;23.38;95462.47;10402919;28;2114;-82
2021/06/17 13:41:16;;;;;;;;;;;32.20;47.20;;;31.19;22.30;95453.50;10407339;28;2025;-81
2021/06/17 13:46:19;;;;;;;;;;;32.10;46.30;;;31.51;22.56;95459.91;10406450;28;1855;-81
2021/06/17 13:51:23;;;;;;;;;;;32.30;46.70;;;31.96;21.31;95460.47;10424582;28;1938;-81
2021/06/17 13:56:26;;;;;;;;;;;32.60;46.20;;;32.14;21.93;95455.44;10423670;28;1947;-82
2021/06/17 14:01:29;;;;;;;;;;;33.00;46.10;;;31.39;21.56;95459.25;10444534;28;1895;-81
2021/06/17 14:06:32;;;;;;;;;;;32.70;44.70;;;31.99;21.78;95454.84;10442121;28;1433;-79
2021/06/17 14:11:35;;;;;;;;;;;32.70;45.30;;;31.91;21.90;95460.94;10430589;28;1937;-81
2021/06/17 14:16:38;;;;;;;;;;;32.90;45.60;;;31.90;22.02;95456.59;10400872;28;2078;-80
2021/06/17 14:21:40;;;;;;;;;;;32.90;45.50;;;32.16;21.91;95447.44;10413968;28;1985;-81
2021/06/17 14:26:45;;;;;;;;;;;32.80;45.80;;;31.65;21.81;95449.38;10391159;28;1882;-82
2021/06/17 14:31:48;;;;;;;;;;;33.10;45.30;;;31.76;21.32;95452.00;10422344;28;1914;-82
2021/06/17 14:36:50;;;;;;;;;;;32.80;44.50;;;31.70;22.28;95464.78;10425809;28;1781;-81
2021/06/17 14:41:53;;;;;;;;;;;32.80;45.50;;;31.28;23.02;95472.47;10399159;28;2126;-81
2021/06/17 14:46:56;;;;;;;;;;;32.20;46.30;;;30.99;23.04;95455.34;10417192;28;2138;-81
2021/06/17 14:51:59;;;;;;;;;;;32.00;46.50;;;31.24;21.53;95459.81;10425757;28;1826;-81
2021/06/17 14:57:04;;;;;;;;;;;32.00;46.00;;;31.15;21.06;95455.53;10403760;28;2225;-81
2021/06/17 15:02:07;;;;;;;;;;;32.20;44.40;;;31.17;21.72;95455.91;10411057;28;1965;-80
2021/06/17 15:07:10;;;;;;;;;;;32.20;45.30;;;31.91;20.28;95452.59;10433465;28;1418;-83
2021/06/17 15:12:13;;;;;;;;;;;32.60;43.70;;;31.51;18.79;95451.56;10427522;28;2139;-82
2021/06/17 15:17:16;;;;;;;;;;;32.70;41.60;;;31.54;18.42;95451.50;10406590;28;2067;-82
2021/06/17 15:22:20;;;;;;;;;;;32.70;41.00;;;32.01;18.41;95434.97;10408102;28;2025;-82
2021/06/17 15:27:23;;;;;;;;;;;32.70;41.50;;;31.60;20.82;95435.94;10405023;28;1629;-82
2021/06/17 15:32:26;;;;;;;;;;;32.80;43.10;;;32.14;20.15;95433.19;10402756;28;1674;-83
2021/06/17 15:37:29;;;;;;;;;;;32.90;42.60;;;31.69;20.92;95436.22;10422415;28;2035;-83
2021/06/17 15:42:32;;;;;;;;;;;32.90;43.00;;;31.39;19.78;95433.47;10421373;28;1985;-82
2021/06/17 15:47:35;;;;;;;;;;;32.60;41.80;;;31.30;21.07;95424.84;10433072;28;2115;-82
2021/06/17 15:52:39;;;;;;;;;;;32.50;43.50;;;30.96;21.00;95422.84;10436667;28;2017;-82
2021/06/17 15:57:42;;;;;;;;;;;32.10;43.60;;;31.49;20.48;95421.41;10442064;28;2003;-83
2021/06/17 16:02:45;;;;;;;;;;;32.20;43.10;;;30.45;22.06;95423.75;10427348;28;1993;-84
2021/06/17 16:07:48;;;;;;;;;;;32.00;44.30;;;30.42;20.17;95422.63;10414132;28;1950;-82
2021/06/17 16:12:51;;;;;;;;;;;31.60;42.10;;;30.49;21.48;95413.44;10403941;28;2004;-83
2021/06/17 16:17:54;;;;;;;;;;;31.70;43.80;;;30.52;20.09;95416.16;10410435;28;1557;-82
2021/06/17 16:22:57;;;;;;;;;;;31.50;41.90;;;30.55;20.49;95409.00;10405445;28;1914;-81
2021/06/17 16:28:00;;;;;;;;;;;31.40;42.50;;;30.53;21.76;95403.06;10403990;28;2110;-82
2021/06/17 16:33:04;;;;;;;;;;;31.50;43.90;;;30.26;22.45;95414.81;10405134;28;1840;-82
2021/06/17 16:38:06;;;;;;;;;;;31.40;44.60;;;29.87;22.71;95410.34;10419477;28;1953;-82
2021/06/17 16:43:10;;;;;;;;;;;31.00;45.00;;;29.86;21.68;95410.78;10411711;28;2022;-83
2021/06/17 16:48:13;;;;;;;;;;;30.80;43.80;;;29.94;22.25;95409.50;10417871;28;1896;-82
2021/06/17 16:53:18;;;;;;;;;;;30.80;44.50;;;29.58;22.33;95415.31;10417659;28;1896;-82
2021/06/17 16:58:25;;;;;;;;;;;30.60;44.80;;;29.61;23.33;95403.41;10415234;28;1379;-81
2021/06/17 17:03:27;;;;;;;;;;;30.50;45.90;;;29.08;24.71;95412.00;10403551;28;1962;-81
2021/06/17 17:08:30;;;;;;;;;;;30.20;46.90;;;29.33;23.83;95412.66;10420109;28;2116;-81
2021/06/17 17:13:36;;;;;;;;;;;30.10;46.50;;;29.38;23.73;95408.66;10415533;28;2052;-83
2021/06/17 17:18:39;;;;;;;;;;;30.10;46.80;;;29.33;23.40;95409.91;10426238;28;1528;-81
2021/06/17 17:23:42;;;;;;;;;;;30.10;46.20;;;29.38;23.81;95421.72;10429921;28;1957;-80
2021/06/17 17:28:49;;;;;;;;;;;30.10;46.70;;;29.01;25.65;95420.31;10403350;28;1595;-78
2021/06/17 17:33:51;;;;;;;;;;;30.10;48.10;;;29.11;25.63;95430.56;10442487;28;1438;-81
2021/06/17 17:38:54;;;;;;;;;;;29.90;48.00;;;29.07;26.05;95425.06;10442887;28;1960;-79
2021/06/17 17:43:57;;;;;;;;;;;29.80;48.60;;;28.72;27.17;95425.91;10433837;28;1317;-79
2021/06/17 17:49:00;;;;;;;;;;;29.60;49.40;;;28.73;27.64;95432.22;10439988;28;1580;-81
2021/06/17 17:54:04;;;;;;;;;;;29.50;50.30;;;28.28;28.78;95432.69;10430354;28;1922;-79
2021/06/17 17:59:07;;;;;;;;;;;29.30;51.80;;;28.44;30.17;95414.91;10429447;28;1910;-80
2021/06/17 18:04:10;;;;;;;;;;;29.20;53.20;;;28.17;30.51;95418.06;10405287;28;1496;-80
2021/06/17 18:09:13;;;;;;;;;;;29.10;53.60;;;27.89;31.64;95434.66;10417527;28;1398;-80
2021/06/17 18:14:15;;;;;;;;;;;28.90;54.00;;;27.87;32.23;95426.78;10409315;28;1611;-78
2021/06/17 18:19:18;;;;;;;;;;;28.80;54.90;;;27.73;32.09;95432.25;10426126;28;1958;-81
2021/06/17 18:24:21;;;;;;;;;;;28.60;55.10;;;27.64;31.94;95431.84;10455529;28;1627;-79
2021/06/17 18:29:24;;;;;;;;;;;28.50;55.00;;;27.26;32.76;95434.09;10452645;28;1654;-80
2021/06/17 18:34:26;;;;;;;;;;;28.30;55.60;;;27.29;32.51;95432.53;10430017;28;1173;-79
2021/06/17 18:39:29;;;;;;;;;;;28.20;55.60;;;27.20;32.92;95433.69;10437362;28;1961;-79
2021/06/17 18:44:34;;;;;;;;;;;28.10;55.90;;;27.10;32.84;95437.22;10437382;28;1190;-78
2021/06/17 18:49:37;;;;;;;;;;;28.00;56.20;;;26.89;33.51;95440.63;10426149;28;1512;-80
2021/06/17 18:54:43;;;;;;;;;;;27.90;56.00;;;26.80;33.98;95431.94;10439127;28;1861;-78
2021/06/17 18:59:46;;;;;;;;;;;27.70;56.40;;;26.67;34.17;95431.47;10418160;28;1895;-80
2021/06/17 19:04:49;;;;;;;;;;;27.70;56.90;;;26.44;34.60;95430.13;10411101;28;1575;-80
2021/06/17 19:09:52;;;;;;;;;;;27.40;57.20;;;26.35;34.42;95428.50;10429337;28;1390;-80
2021/06/17 19:14:54;;;;;;;;;;;27.30;57.50;;;26.18;35.17;95436.63;10431489;28;1571;-78
2021/06/17 19:19:58;;;;;;;;;;;27.20;58.00;;;26.11;35.41;95440.13;10421888;28;1894;-79
2021/06/17 19:25:01;;;;;;;;;;;27.10;58.60;;;25.79;36.37;95450.84;10416445;28;1563;-81
2021/06/17 19:30:07;;;;;;;;;;;26.90;58.60;;;25.46;36.93;95443.44;10410705;28;2058;-78
2021/06/17 19:35:11;;;;;;;;;;;26.60;59.20;;;25.54;37.07;95445.88;10410783;28;1188;-78
2021/06/17 19:40:13;;;;;;;;;;;26.40;60.00;;;25.22;37.91;95451.03;10403823;28;1976;-79
2021/06/17 19:45:17;;;;;;;;;;;26.40;60.60;;;24.89;38.33;95457.28;10432632;28;1300;-80
2021/06/17 19:50:20;;;;;;;;;;;26.10;61.00;;;24.66;38.36;95454.59;10412905;28;1559;-78
2021/06/17 19:55:35;;;;;;;;;;;25.90;60.50;;;24.53;38.66;95464.25;10410122;28;1802;-79
2021/06/17 20:00:38;;;;;;;;;;;25.80;61.00;;;24.39;38.95;95459.34;10412370;28;1989;-79
2021/06/17 20:05:42;;;;;;;;;;;25.60;61.40;;;24.14;39.79;95461.66;10412667;28;1631;-78
2021/06/17 20:10:45;;;;;;;;;;;25.40;62.20;;;23.97;40.73;95460.22;10425202;28;1320;-80
2021/06/17 20:15:48;;;;;;;;;;;25.30;63.30;;;24.01;43.25;95465.75;10431031;28;1540;-81
2021/06/17 20:20:51;;;;;;;;;;;25.10;66.00;;;23.77;43.26;95466.13;10418028;28;1985;-79
2021/06/17 20:25:54;;;;;;;;;;;24.80;66.20;;;23.61;44.07;95456.06;10433195;28;1602;-81
2021/06/17 20:30:56;;;;;;;;;;;24.80;66.90;;;23.59;42.58;95461.09;10410271;28;1595;-79
2021/06/17 20:35:59;;;;;;;;;;;24.70;66.00;;;23.42;43.20;95467.84;10420015;28;1406;-80
2021/06/17 20:41:02;;;;;;;;;;;24.60;66.00;;;23.35;43.32;95472.38;10429144;28;1983;-80
2021/06/17 20:46:05;;;;;;;;;;;24.50;66.60;;;23.30;44.21;95464.47;10429754;28;1710;-79
2021/06/17 20:51:10;;;;;;;;;;;24.40;67.40;;;23.18;45.04;95465.41;10422291;28;1575;-78
2021/06/17 20:56:12;;;;;;;;;;;24.30;68.20;;;22.98;46.71;95461.91;10411164;28;1596;-80
2021/06/17 21:01:15;;;;;;;;;;;24.20;69.60;;;22.86;47.07;95462.00;10411973;28;1980;-78
2021/06/17 21:06:18;;;;;;;;;;;24.00;70.10;;;22.74;47.62;95465.66;10398768;28;2093;-81
2021/06/17 21:11:20;;;;;;;;;;;23.90;70.70;;;22.62;48.28;95474.00;10426768;28;2337;-80
2021/06/17 21:16:23;;;;;;;;;;;23.80;71.50;;;22.58;47.69;95473.91;10428409;28;2098;-80
2021/06/17 21:21:26;;;;;;;;;;;23.70;71.20;;;22.52;48.15;95475.38;10425478;28;1981;-78
2021/06/17 21:26:30;;;;;;;;;;;23.70;71.80;;;22.46;48.64;95476.78;10425802;28;2135;-79
2021/06/17 21:31:32;;;;;;;;;;;23.60;72.30;;;22.36;49.53;95480.06;10419626;28;1865;-80
2021/06/17 21:36:35;;;;;;;;;;;23.50;73.00;;;22.27;50.09;95479.47;10424870;28;2099;-79
2021/06/17 21:41:38;;;;;;;;;;;23.40;73.80;;;22.16;50.35;95478.44;10421625;28;2039;-80
2021/06/17 21:46:40;;;;;;;;;;;23.30;74.00;;;22.09;51.96;95477.09;10422124;28;2251;-81
2021/06/17 21:51:43;;;;;;;;;;;23.20;75.20;;;21.82;52.20;95476.03;10399174;28;2305;-79
2021/06/17 21:56:47;;;;;;;;;;;23.00;75.70;;;21.69;52.62;95482.69;10410324;28;2262;-80
2021/06/17 22:01:49;;;;;;;;;;;22.90;76.20;;;21.66;52.09;95472.47;10414158;28;2255;-80
2021/06/17 22:06:52;;;;;;;;;;;22.80;76.00;;;21.66;51.18;95468.94;10397514;28;2315;-80
2021/06/17 22:11:55;;;;;;;;;;;22.70;75.60;;;21.48;52.88;95476.69;10396584;28;2306;-80
2021/06/17 22:16:58;;;;;;;;;;;22.60;76.50;;;21.45;51.48;95472.72;10417443;28;2221;-81
2021/06/17 22:22:00;;;;;;;;;;;22.60;75.80;;;21.66;49.96;95467.00;10417630;28;1911;-77
2021/06/17 22:27:03;;;;;;;;;;;22.70;75.00;;;21.53;51.15;95469.03;10412141;28;2177;-80
2021/06/17 22:32:06;;;;;;;;;;;22.70;75.50;;;21.36;52.87;95474.00;10409031;28;2120;-79
2021/06/17 22:37:09;;;;;;;;;;;22.60;76.80;;;21.23;54.09;95476.78;10399108;28;2076;-78
2021/06/17 22:42:11;;;;;;;;;;;22.40;78.10;;;21.32;54.02;95476.66;10416921;28;1972;-78
2021/06/17 22:47:14;;;;;;;;;;;22.20;79.00;;;21.13;53.48;95469.09;10407573;28;2107;-80
2021/06/17 22:52:17;;;;;;;;;;;22.20;78.10;;;21.05;53.88;95476.28;10398117;28;2109;-79
2021/06/17 22:57:19;;;;;;;;;;;22.20;78.40;;;20.98;53.91;95472.56;10414537;28;2031;-81
2021/06/17 23:02:24;;;;;;;;;;;22.00;78.60;;;20.87;55.85;95472.28;10416027;28;2131;-80
2021/06/17 23:07:27;;;;;;;;;;;22.00;80.10;;;20.71;55.68;95471.38;10425304;28;1933;-78
2021/06/17 23:12:29;;;;;;;;;;;21.90;80.10;;;20.60;55.74;95470.28;10434961;28;2023;-78
2021/06/17 23:17:32;;;;;;;;;;;21.70;80.70;;;20.56;56.52;95474.84;10419413;28;2254;-78
2021/06/17 23:22:35;;;;;;;;;;;21.60;81.40;;;20.51;57.33;95471.22;10416296;28;2017;-78